Terminal Aerodrome Forecast
Issued by NWS

Home | Current Version | Previous Version | Text Only | Print | Product List | Glossary On
Versions: 1 2 3 4 5 6 7 8 9 10 11 12 13 14 15 16 17 18 19 20 21
000
FTUS43 KDLH 271731
TAFHIB
TAF
KHIB 271731Z 2718/2818 33004KT P6SM VCSH BKN050
      TEMPO 2719/2723 6SM -TSRA BKN050CB
     FM280000 01004KT P6SM SCT060
     FM280700 00000KT 3SM BR SKC
     FM280900 00000KT 1/2SM FG SCT003
     FM281300 VRB03KT P6SM SCT150=

USA.gov is the U.S. government's official web portal to all federal, state and local government web resources and services.